createdAt,value
2019-04-14T00:04:34.009Z,18.83
2019-04-14T00:09:40.125Z,17.63
2019-04-14T00:14:46.953Z,19.10
2019-04-14T00:19:52.867Z,18.60
2019-04-14T00:24:59.635Z,18.70
2019-04-14T00:30:09.708Z,18.23
2019-04-14T00:35:25.487Z,20.00
2019-04-14T00:40:36.822Z,19.40
2019-04-14T00:45:52.529Z,17.60
2019-04-14T00:50:55.992Z,19.17
2019-04-14T00:56:02.015Z,18.50
2019-04-14T01:01:09.415Z,17.70
2019-04-14T01:06:16.410Z,18.43
2019-04-14T01:11:22.498Z,18.90
2019-04-14T01:16:29.712Z,18.27
2019-04-14T01:21:35.258Z,16.83
2019-04-14T01:26:41.995Z,18.70
2019-04-14T01:31:47.751Z,18.80
2019-04-14T01:36:54.034Z,17.63
2019-04-14T01:42:04.846Z,17.07
2019-04-14T01:52:34.566Z,19.27
2019-04-14T01:57:50.554Z,18.93
2019-04-14T02:02:57.396Z,18.30
2019-04-14T02:08:04.969Z,16.97
2019-04-14T02:13:13.585Z,19.20
2019-04-14T02:18:20.712Z,18.30
2019-04-14T02:23:27.903Z,17.00
2019-04-14T02:28:36.000Z,18.60
2019-04-14T02:34:07.536Z,16.67
2019-04-14T02:39:23.526Z,15.80
2019-04-14T02:44:32.078Z,18.47
2019-04-14T02:49:41.534Z,17.37
2019-04-14T02:54:59.916Z,17.90
2019-04-14T03:05:20.814Z,17.70
2019-04-14T03:10:31.885Z,17.47
2019-04-14T03:15:39.894Z,15.73
2019-04-14T03:21:03.603Z,16.40
2019-04-14T03:26:25.345Z,14.53
2019-04-14T03:41:54.798Z,14.10
2019-04-14T03:47:08.888Z,12.43
2019-04-14T03:52:17.096Z,9.90
2019-04-14T03:56:57.680Z,10.00
2019-04-14T04:02:05.254Z,10.50
2019-04-14T04:07:12.385Z,8.83
2019-04-14T04:12:20.406Z,8.77
2019-04-14T04:17:47.209Z,9.20
2019-04-14T04:23:23.052Z,8.50
2019-04-14T04:28:56.434Z,8.10
2019-04-14T04:34:14.016Z,8.03
2019-04-14T04:39:23.930Z,9.20
2019-04-14T04:44:33.451Z,9.90
2019-04-14T04:49:40.471Z,9.20
2019-04-14T04:54:47.424Z,8.27
2019-04-14T04:59:56.049Z,8.77
2019-04-14T05:05:03.513Z,8.50
2019-04-14T05:10:26.350Z,7.97
2019-04-14T05:15:55.265Z,8.00
2019-04-14T05:21:21.745Z,7.70
2019-04-14T05:26:28.671Z,8.00
2019-04-14T05:31:35.995Z,7.03
2019-04-14T05:36:45.371Z,6.57
2019-04-14T05:42:01.491Z,7.20
2019-04-14T05:47:04.419Z,7.33
2019-04-14T05:52:12.093Z,6.67
2019-04-14T05:57:17.912Z,7.33
2019-04-14T06:02:28.897Z,7.50
2019-04-14T06:07:38.657Z,8.13
2019-04-14T06:12:48.128Z,6.93
2019-04-14T06:17:54.535Z,6.73
2019-04-14T06:23:02.556Z,7.67
2019-04-14T06:28:09.350Z,7.80
2019-04-14T06:33:24.194Z,8.93
2019-04-14T06:38:33.800Z,7.53
2019-04-14T06:43:48.612Z,7.50
2019-04-14T06:48:48.643Z,8.20
2019-04-14T06:53:54.593Z,7.50
2019-04-14T06:59:01.820Z,7.20
2019-04-14T07:04:08.776Z,6.63
2019-04-14T07:09:16.863Z,8.00
2019-04-14T07:14:23.486Z,8.40
2019-04-14T07:19:34.407Z,8.90
2019-04-14T07:24:39.965Z,8.10
2019-04-14T07:29:58.414Z,10.30
2019-04-14T07:35:21.505Z,9.53
2019-04-14T07:40:45.484Z,9.17
2019-04-14T07:46:18.781Z,7.97
2019-04-14T07:51:32.318Z,6.87
2019-04-14T07:56:57.976Z,7.13
2019-04-14T08:02:25.192Z,8.37
2019-04-14T08:07:32.694Z,7.80
2019-04-14T08:12:38.708Z,8.90
2019-04-14T08:17:44.245Z,11.80
2019-04-14T08:22:50.302Z,11.60
2019-04-14T08:28:01.903Z,9.37
2019-04-14T08:33:08.198Z,10.83
2019-04-14T08:38:14.133Z,9.70
2019-04-14T08:43:30.184Z,10.20
2019-04-14T08:49:10.189Z,10.90
2019-04-14T08:54:40.976Z,9.10
2019-04-14T09:00:21.042Z,10.83
2019-04-14T09:05:44.522Z,10.87
2019-04-14T09:10:53.299Z,11.07
2019-04-14T09:15:59.451Z,11.30
2019-04-14T09:21:08.274Z,10.47
2019-04-14T09:26:15.589Z,10.87
2019-04-14T09:31:21.550Z,10.03
2019-04-14T09:36:27.177Z,9.93
2019-04-14T09:41:33.377Z,10.33
2019-04-14T09:53:15.147Z,9.73
2019-04-14T09:58:21.744Z,10.40
2019-04-14T10:03:29.129Z,10.60
2019-04-14T10:08:34.948Z,9.77
2019-04-14T10:13:41.568Z,10.50
2019-04-14T10:18:49.688Z,10.27
2019-04-14T10:23:55.317Z,9.77
2019-04-14T10:29:04.475Z,9.93
2019-04-14T10:34:10.182Z,9.57
2019-04-14T10:39:16.598Z,10.40
2019-04-14T10:44:22.432Z,9.90
2019-04-14T10:49:30.050Z,12.03
2019-04-14T10:54:37.561Z,12.30
2019-04-14T10:59:43.566Z,11.30
2019-04-14T11:04:53.145Z,11.53
2019-04-14T11:10:00.090Z,12.30
2019-04-14T11:15:07.126Z,11.40
2019-04-14T11:20:14.611Z,13.13
2019-04-14T11:25:20.637Z,13.27
2019-04-14T11:30:26.567Z,15.50
2019-04-14T11:35:43.644Z,15.40
2019-04-14T11:40:59.350Z,16.40
2019-04-14T11:46:08.015Z,18.33
2019-04-14T11:51:19.691Z,17.10
2019-04-14T11:56:25.758Z,17.70
2019-04-14T12:01:54.344Z,18.10
2019-04-14T12:07:18.988Z,17.80
2019-04-14T12:12:25.273Z,16.27
2019-04-14T12:17:30.921Z,16.07
2019-04-14T12:22:40.424Z,15.27
2019-04-14T12:27:46.877Z,15.87
2019-04-14T12:32:53.174Z,17.73
2019-04-14T12:37:58.799Z,17.43
2019-04-14T12:43:25.140Z,17.10
2019-04-14T12:48:45.755Z,18.80
2019-04-14T12:53:54.717Z,17.07
2019-04-14T12:59:19.254Z,17.33
2019-04-14T13:04:27.156Z,20.77
2019-04-14T13:09:33.163Z,19.83
2019-04-14T13:14:41.449Z,21.73
2019-04-14T13:19:48.383Z,22.17
2019-04-14T13:24:55.812Z,22.17
2019-04-14T13:30:01.568Z,23.30
2019-04-14T13:35:09.281Z,25.60
2019-04-14T13:40:17.453Z,26.07
2019-04-14T13:45:23.615Z,25.43
2019-04-14T13:50:29.900Z,25.63
2019-04-14T13:55:37.055Z,28.43
2019-04-14T14:00:45.008Z,28.97
2019-04-14T14:05:50.678Z,28.97
2019-04-14T14:11:03.713Z,28.33
2019-04-14T14:16:44.994Z,28.27
2019-04-14T14:22:01.107Z,28.13
2019-04-14T14:27:12.101Z,30.73
2019-04-14T14:32:32.292Z,29.23
2019-04-14T14:37:39.517Z,30.27
2019-04-14T14:42:45.556Z,27.80
2019-04-14T14:48:07.987Z,28.17
2019-04-14T14:53:15.949Z,30.53
2019-04-14T14:58:24.302Z,29.60
2019-04-14T15:03:30.941Z,27.17
2019-04-14T15:08:37.814Z,28.37
2019-04-14T15:13:43.798Z,30.80
2019-04-14T15:18:52.177Z,26.80
2019-04-14T15:24:00.399Z,29.17
2019-04-14T15:29:07.964Z,29.37
2019-04-14T15:34:26.176Z,28.30
2019-04-14T15:39:32.258Z,28.30
2019-04-14T15:44:38.534Z,29.57
2019-04-14T15:49:48.101Z,30.00
2019-04-14T15:54:53.940Z,29.23
2019-04-14T16:00:18.126Z,31.40
2019-04-14T16:05:28.954Z,29.57
2019-04-14T16:11:07.234Z,29.00
2019-04-14T16:16:28.831Z,31.10
2019-04-14T16:21:36.993Z,30.27
2019-04-14T16:26:53.440Z,31.00
2019-04-14T16:32:15.045Z,30.00
2019-04-14T16:37:22.242Z,30.40
2019-04-14T16:42:29.292Z,30.03
2019-04-14T16:47:36.341Z,30.80
2019-04-14T16:52:48.663Z,29.93
2019-04-14T16:58:16.173Z,30.07
2019-04-14T17:03:23.201Z,30.60
2019-04-14T17:08:30.064Z,33.23
2019-04-14T17:13:41.338Z,28.10
2019-04-14T17:19:00.374Z,31.67
2019-04-14T17:24:27.395Z,31.47
2019-04-14T17:29:38.992Z,28.50
2019-04-14T17:35:03.268Z,35.70
2019-04-14T17:40:27.205Z,35.33
2019-04-14T17:45:50.709Z,31.50
2019-04-14T17:51:11.190Z,30.30
2019-04-14T17:56:32.018Z,36.57
2019-04-14T18:01:57.939Z,29.30
2019-04-14T18:07:23.393Z,28.30
2019-04-14T18:12:35.882Z,28.83
2019-04-14T18:18:00.542Z,28.70
2019-04-14T18:23:11.330Z,27.57
2019-04-14T18:28:44.303Z,28.63
2019-04-14T18:34:22.010Z,28.90
2019-04-14T18:39:53.903Z,28.13
2019-04-14T18:45:28.238Z,27.90
2019-04-14T18:50:56.315Z,29.03
2019-04-14T18:56:21.450Z,25.60
2019-04-14T19:01:30.337Z,27.20
2019-04-14T19:06:36.295Z,25.57
2019-04-14T19:12:00.370Z,24.50
2019-04-14T19:17:18.152Z,22.73
2019-04-14T19:22:24.754Z,25.40
2019-04-14T19:27:33.355Z,25.73
2019-04-14T19:32:41.196Z,23.63
2019-04-14T19:37:47.216Z,23.30
2019-04-14T19:42:53.379Z,27.10
2019-04-14T19:48:00.093Z,27.20
2019-04-14T19:53:07.667Z,25.67
2019-04-14T19:58:15.382Z,28.43
2019-04-14T20:03:22.433Z,28.40
2019-04-14T20:08:29.709Z,27.00
2019-04-14T20:13:40.504Z,29.50
2019-04-14T20:19:18.497Z,27.00
2019-04-14T20:24:37.060Z,29.20
2019-04-14T20:29:49.172Z,26.63
2019-04-14T20:34:54.598Z,29.27
2019-04-14T20:40:00.575Z,27.70
2019-04-14T20:45:09.819Z,28.17
2019-04-14T20:50:17.037Z,27.97
2019-04-14T20:55:23.055Z,27.87
2019-04-14T21:00:28.674Z,28.37
2019-04-14T21:05:52.449Z,25.97
2019-04-14T21:11:04.938Z,27.40
2019-04-14T21:16:19.986Z,25.57
2019-04-14T21:21:34.217Z,26.30
2019-04-14T21:27:11.017Z,25.00
2019-04-14T21:32:29.692Z,25.47
2019-04-14T21:37:52.953Z,24.90
2019-04-14T21:42:58.721Z,23.87
2019-04-14T21:48:04.406Z,23.30
2019-04-14T21:53:10.140Z,23.87
2019-04-14T21:58:24.011Z,23.90
2019-04-14T22:03:54.714Z,22.33
2019-04-14T22:09:01.205Z,22.70
2019-04-14T22:14:08.346Z,21.97
2019-04-14T22:19:13.888Z,22.27
2019-04-14T22:24:19.825Z,23.67
2019-04-14T22:29:26.120Z,22.70
2019-04-14T22:34:33.593Z,23.40
2019-04-14T22:39:39.505Z,22.90
2019-04-14T22:44:45.376Z,23.40
2019-04-14T22:49:51.088Z,24.40
2019-04-14T22:54:56.876Z,21.60
2019-04-14T23:00:03.672Z,22.10
2019-04-14T23:05:36.426Z,21.47
2019-04-14T23:11:01.963Z,20.50
2019-04-14T23:16:31.497Z,21.20
2019-04-14T23:21:48.853Z,20.67
2019-04-14T23:26:54.548Z,21.20
2019-04-14T23:32:00.665Z,23.30
2019-04-14T23:37:07.376Z,21.40
2019-04-14T23:42:13.507Z,21.70
2019-04-14T23:47:19.075Z,22.13
2019-04-14T23:52:24.647Z,22.80
2019-04-14T23:57:31.053Z,21.50
